createdAt,value
2018-03-15T00:02:19.148Z,62.90
2018-03-15T00:04:45.617Z,62.90
2018-03-15T00:07:12.839Z,62.90
2018-03-15T00:09:39.298Z,62.90
2018-03-15T00:12:05.906Z,62.90
2018-03-15T00:14:32.365Z,62.80
2018-03-15T00:17:00.014Z,62.80
2018-03-15T00:19:26.474Z,62.80
2018-03-15T00:21:52.953Z,62.90
2018-03-15T00:24:19.426Z,62.80
2018-03-15T00:26:47.540Z,62.80
2018-03-15T00:29:15.044Z,62.80
2018-03-15T00:31:42.353Z,62.80
2018-03-15T00:34:09.697Z,62.80
2018-03-15T00:36:36.246Z,62.80
2018-03-15T00:39:02.947Z,62.80
2018-03-15T00:41:29.491Z,62.80
2018-03-15T00:43:55.936Z,62.80
2018-03-15T00:46:22.405Z,62.80
2018-03-15T00:48:48.844Z,62.80
2018-03-15T00:51:15.294Z,62.80
2018-03-15T00:53:41.751Z,62.80
2018-03-15T00:56:08.211Z,62.80
2018-03-15T00:58:34.667Z,63.50
2018-03-15T01:01:01.232Z,62.80
2018-03-15T01:03:27.680Z,62.80
2018-03-15T01:05:54.907Z,62.80
2018-03-15T01:08:21.353Z,62.70
2018-03-15T01:10:47.815Z,62.80
2018-03-15T01:13:14.257Z,62.70
2018-03-15T01:15:40.726Z,62.70
2018-03-15T01:18:07.188Z,62.70
2018-03-15T01:20:34.450Z,62.70
2018-03-15T01:23:01.677Z,62.70
2018-03-15T01:25:28.153Z,62.70
2018-03-15T01:27:55.383Z,62.70
2018-03-15T01:30:21.850Z,62.70
2018-03-15T01:32:48.340Z,62.70
2018-03-15T01:35:14.798Z,62.70
2018-03-15T01:37:41.251Z,62.70
2018-03-15T01:40:07.716Z,62.70
2018-03-15T01:42:34.189Z,62.70
2018-03-15T01:45:00.697Z,62.70
2018-03-15T01:47:27.168Z,62.60
2018-03-15T01:49:55.144Z,62.70
2018-03-15T01:52:21.620Z,62.60
2018-03-15T01:54:48.840Z,62.60
2018-03-15T01:57:15.344Z,62.60
2018-03-15T01:59:42.554Z,62.60
2018-03-15T02:02:09.028Z,62.60
2018-03-15T02:04:35.507Z,62.60
2018-03-15T02:07:01.962Z,62.50
2018-03-15T02:09:28.446Z,62.50
2018-03-15T02:11:54.905Z,62.60
2018-03-15T02:14:21.373Z,62.50
2018-03-15T02:16:48.612Z,62.60
2018-03-15T02:19:15.067Z,62.50
2018-03-15T02:21:41.573Z,62.50
2018-03-15T02:24:08.017Z,62.50
2018-03-15T02:26:34.460Z,62.50
2018-03-15T02:29:00.910Z,62.50
2018-03-15T02:31:27.354Z,62.50
2018-03-15T02:33:53.856Z,62.60
2018-03-15T02:36:21.138Z,62.90
2018-03-15T02:38:48.353Z,62.40
2018-03-15T02:41:14.811Z,62.40
2018-03-15T02:43:42.031Z,62.50
2018-03-15T02:46:08.483Z,62.50
2018-03-15T02:48:35.018Z,62.40
2018-03-15T02:51:01.470Z,62.40
2018-03-15T02:53:28.001Z,62.40
2018-03-15T02:55:55.329Z,62.40
2018-03-15T02:58:21.787Z,62.40
2018-03-15T03:00:48.271Z,62.50
2018-03-15T03:03:14.730Z,62.40
2018-03-15T03:05:41.220Z,62.40
2018-03-15T03:08:08.445Z,62.40
2018-03-15T03:10:34.916Z,62.40
2018-03-15T03:13:01.373Z,62.40
2018-03-15T03:15:27.875Z,62.40
2018-03-15T03:17:54.330Z,62.40
2018-03-15T03:20:20.833Z,62.40
2018-03-15T03:22:47.281Z,62.40
2018-03-15T03:25:13.726Z,62.40
2018-03-15T03:27:40.169Z,62.40
2018-03-15T03:30:06.623Z,62.40
2018-03-15T03:32:33.870Z,62.40
2018-03-15T03:35:00.322Z,62.30
2018-03-15T03:37:27.560Z,62.40
2018-03-15T03:39:54.000Z,62.30
2018-03-15T03:42:20.468Z,62.40
2018-03-15T03:44:46.913Z,62.30
2018-03-15T03:47:13.411Z,62.30
2018-03-15T03:49:39.862Z,62.40
2018-03-15T03:52:06.352Z,62.30
2018-03-15T03:54:32.805Z,62.30
2018-03-15T03:56:59.297Z,62.30
2018-03-15T03:59:25.769Z,62.30
2018-03-15T04:01:52.251Z,62.30
2018-03-15T04:04:18.707Z,62.30
2018-03-15T04:06:45.951Z,62.40
2018-03-15T04:09:12.400Z,62.30
2018-03-15T04:11:38.861Z,62.30
2018-03-15T04:14:05.319Z,62.30
2018-03-15T04:16:32.533Z,62.30
2018-03-15T04:18:58.975Z,62.30
2018-03-15T04:21:25.420Z,62.20
2018-03-15T04:23:51.861Z,62.20
2018-03-15T04:26:18.379Z,62.20
2018-03-15T04:28:44.853Z,62.30
2018-03-15T04:31:11.300Z,62.20
2018-03-15T04:33:37.765Z,62.30
2018-03-15T04:36:04.220Z,62.20
2018-03-15T04:38:30.719Z,62.20
2018-03-15T04:40:57.185Z,62.30
2018-03-15T04:43:23.671Z,62.20
2018-03-15T04:45:50.130Z,62.20
2018-03-15T04:48:17.393Z,62.20
2018-03-15T04:50:43.846Z,62.20
2018-03-15T04:53:11.094Z,62.20
2018-03-15T04:55:37.560Z,62.20
2018-03-15T04:58:04.923Z,62.10
2018-03-15T05:00:32.133Z,62.10
2018-03-15T05:02:58.590Z,62.10
2018-03-15T05:05:25.052Z,62.10
2018-03-15T05:07:51.502Z,62.10
2018-03-15T05:10:18.723Z,62.20
2018-03-15T05:12:45.165Z,62.10
2018-03-15T05:15:11.623Z,62.10
2018-03-15T05:17:38.079Z,62.10
2018-03-15T05:20:04.540Z,62.10
2018-03-15T05:22:31.008Z,62.00
2018-03-15T05:24:57.478Z,62.10
2018-03-15T05:27:23.932Z,62.30
2018-03-15T05:29:50.420Z,62.00
2018-03-15T05:32:16.871Z,62.00
2018-03-15T05:34:43.350Z,62.00
2018-03-15T05:37:10.576Z,62.00
2018-03-15T05:39:37.055Z,62.00
2018-03-15T05:42:03.970Z,62.00
2018-03-15T05:44:30.469Z,62.00
2018-03-15T05:46:56.940Z,62.00
2018-03-15T05:49:23.402Z,61.90
2018-03-15T05:51:49.873Z,62.00
2018-03-15T05:54:16.331Z,62.00
2018-03-15T05:56:42.787Z,62.00
2018-03-15T05:59:10.019Z,62.00
2018-03-15T06:01:36.523Z,61.80
2018-03-15T06:04:03.102Z,61.90
2018-03-15T06:06:29.544Z,62.00
2018-03-15T06:08:55.988Z,61.80
2018-03-15T06:11:22.434Z,61.80
2018-03-15T06:13:48.869Z,61.80
2018-03-15T06:16:15.308Z,61.80
2018-03-15T06:18:41.780Z,61.80
2018-03-15T06:21:08.252Z,61.80
2018-03-15T06:23:34.711Z,60.50
2018-03-15T06:26:01.176Z,60.80
2018-03-15T06:28:28.408Z,61.90
2018-03-15T06:30:55.654Z,61.60
2018-03-15T06:33:22.105Z,61.50
2018-03-15T06:35:48.609Z,61.70
2018-03-15T06:38:15.081Z,61.50
2018-03-15T06:40:41.530Z,61.40
2018-03-15T06:43:08.752Z,61.30
2018-03-15T06:45:35.989Z,61.50
2018-03-15T06:48:02.502Z,61.40
2018-03-15T06:50:28.961Z,61.40
2018-03-15T06:52:55.415Z,61.40
2018-03-15T06:55:21.887Z,61.40
2018-03-15T06:57:48.332Z,61.40
2018-03-15T07:00:14.826Z,61.50
2018-03-15T07:02:41.278Z,61.30
2018-03-15T07:05:07.767Z,61.40
2018-03-15T07:07:34.219Z,61.50
2018-03-15T07:10:01.482Z,61.40
2018-03-15T07:12:27.955Z,61.40
2018-03-15T07:14:54.424Z,61.50
2018-03-15T07:17:20.868Z,61.60
2018-03-15T07:19:47.313Z,61.60
2018-03-15T07:22:13.781Z,61.50
2018-03-15T07:24:40.224Z,61.60
2018-03-15T07:27:06.670Z,61.70
2018-03-15T07:29:33.111Z,61.60
2018-03-15T07:31:59.580Z,61.60
2018-03-15T07:34:26.053Z,62.10
2018-03-15T07:36:53.260Z,61.70
2018-03-15T07:39:19.767Z,61.60
2018-03-15T07:41:46.184Z,62.40
2018-03-15T07:44:12.638Z,61.70
2018-03-15T07:46:39.099Z,61.70
2018-03-15T07:49:06.313Z,61.80
2018-03-15T07:51:32.771Z,61.80
2018-03-15T07:53:59.241Z,61.90
2018-03-15T07:56:25.734Z,61.90
2018-03-15T07:58:52.209Z,61.80
2018-03-15T08:01:18.671Z,61.80
2018-03-15T08:03:45.116Z,61.70
2018-03-15T08:06:11.571Z,61.60
2018-03-15T08:08:38.027Z,61.70
2018-03-15T08:11:05.242Z,61.40
2018-03-15T08:13:31.708Z,61.40
2018-03-15T08:15:58.162Z,61.40
2018-03-15T08:18:24.618Z,61.30
2018-03-15T08:20:51.206Z,61.20
2018-03-15T08:23:17.682Z,60.20
2018-03-15T08:25:44.147Z,60.80
2018-03-15T08:28:10.602Z,61.80
2018-03-15T08:30:37.056Z,61.80
2018-03-15T08:33:04.257Z,61.70
2018-03-15T08:35:30.784Z,61.50
2018-03-15T08:37:57.208Z,61.60
2018-03-15T08:40:25.172Z,61.60
2018-03-15T08:42:51.668Z,61.50
2018-03-15T08:45:18.224Z,61.50
2018-03-15T08:47:44.686Z,61.50
2018-03-15T08:50:11.153Z,61.50
2018-03-15T08:52:37.607Z,61.50
2018-03-15T08:55:04.197Z,61.60
2018-03-15T08:57:31.432Z,61.70
2018-03-15T08:59:57.904Z,61.60
2018-03-15T09:02:25.136Z,61.70
2018-03-15T09:04:51.681Z,61.70
2018-03-15T09:07:18.109Z,61.70
2018-03-15T09:09:44.611Z,61.80
2018-03-15T09:12:11.830Z,61.80
2018-03-15T09:14:38.311Z,61.70
2018-03-15T09:17:04.836Z,61.90
2018-03-15T09:19:31.316Z,61.70
2018-03-15T09:21:58.543Z,57.50
2018-03-15T09:24:25.866Z,57.30
2018-03-15T09:26:52.336Z,57.20
2018-03-15T09:29:18.833Z,57.20
2018-03-15T09:31:46.063Z,58.00
2018-03-15T09:34:12.593Z,57.40
2018-03-15T09:36:39.067Z,57.50
2018-03-15T09:39:05.547Z,57.60
2018-03-15T09:41:32.045Z,57.70
2018-03-15T09:43:58.502Z,57.80
2018-03-15T09:46:25.028Z,57.90
2018-03-15T09:48:51.509Z,57.90
2018-03-15T09:51:18.795Z,58.10
2018-03-15T09:53:45.272Z,58.10
2018-03-15T09:56:11.786Z,58.30
2018-03-15T09:58:39.052Z,58.50
2018-03-15T10:01:06.305Z,58.60
2018-03-15T10:03:33.568Z,58.70
2018-03-15T10:06:00.854Z,58.70
2018-03-15T10:08:27.333Z,58.70
2018-03-15T10:10:53.827Z,58.80
2018-03-15T10:13:21.080Z,59.00
2018-03-15T10:15:47.569Z,59.00
2018-03-15T10:18:14.047Z,59.70
2018-03-15T10:20:40.577Z,59.90
2018-03-15T10:23:07.045Z,60.90
2018-03-15T10:25:33.554Z,60.80
2018-03-15T10:28:00.782Z,60.70
2018-03-15T10:30:28.040Z,60.80
2018-03-15T10:32:54.513Z,60.60
2018-03-15T10:35:21.012Z,61.40
2018-03-15T10:37:47.481Z,60.80
2018-03-15T10:40:13.955Z,60.60
2018-03-15T10:42:41.218Z,60.20
2018-03-15T10:45:08.454Z,59.80
2018-03-15T10:47:34.953Z,59.80
2018-03-15T10:50:01.439Z,59.80
2018-03-15T10:52:27.944Z,59.70
2018-03-15T10:54:54.405Z,59.70
2018-03-15T10:57:20.896Z,59.70
2018-03-15T10:59:47.400Z,58.80
2018-03-15T11:02:13.896Z,58.30
2018-03-15T11:04:40.340Z,58.60
2018-03-15T11:07:06.959Z,59.10
2018-03-15T11:09:33.432Z,59.30
2018-03-15T11:11:59.910Z,59.60
2018-03-15T11:14:26.386Z,59.70
2018-03-15T11:16:52.860Z,60.00
2018-03-15T11:19:19.339Z,60.10
2018-03-15T11:21:46.579Z,60.50
2018-03-15T11:24:13.055Z,60.60
2018-03-15T11:26:39.522Z,60.70
2018-03-15T11:29:06.003Z,60.80
2018-03-15T11:31:32.471Z,60.90
2018-03-15T11:33:59.722Z,60.60
2018-03-15T11:36:27.714Z,60.80
2018-03-15T11:38:54.965Z,60.90
2018-03-15T11:41:21.453Z,60.80
2018-03-15T11:43:48.014Z,60.80
2018-03-15T11:46:14.437Z,61.00
2018-03-15T11:48:41.720Z,60.90
2018-03-15T11:51:08.212Z,60.80
2018-03-15T11:53:34.703Z,61.20
2018-03-15T11:56:01.191Z,61.10
2018-03-15T11:58:29.669Z,61.20
2018-03-15T12:00:56.142Z,61.20
2018-03-15T12:03:22.642Z,61.50
2018-03-15T12:05:49.131Z,61.30
2018-03-15T12:08:15.601Z,61.40
2018-03-15T12:10:42.097Z,61.50
2018-03-15T12:13:08.601Z,61.40
2018-03-15T12:15:35.869Z,61.70
2018-03-15T12:18:03.846Z,61.60
2018-03-15T12:20:30.397Z,61.60
2018-03-15T12:22:56.917Z,61.80
2018-03-15T12:25:23.489Z,61.70
2018-03-15T12:27:49.961Z,61.50
2018-03-15T12:30:17.211Z,59.80
2018-03-15T12:32:43.657Z,59.70
2018-03-15T12:35:10.120Z,61.20
2018-03-15T12:37:36.575Z,60.90
2018-03-15T12:40:03.853Z,60.80
2018-03-15T12:42:30.338Z,60.80
2018-03-15T12:44:56.794Z,60.60
2018-03-15T12:47:23.269Z,60.80
2018-03-15T12:49:49.723Z,60.80
2018-03-15T12:52:16.942Z,60.80
2018-03-15T12:54:43.385Z,60.80
2018-03-15T12:57:09.838Z,60.80
2018-03-15T12:59:36.308Z,60.80
2018-03-15T13:02:03.918Z,60.80
2018-03-15T13:04:30.382Z,60.90
2018-03-15T13:06:56.838Z,60.80
2018-03-15T13:09:23.309Z,60.90
2018-03-15T13:11:49.756Z,60.90
2018-03-15T13:14:16.214Z,60.90
2018-03-15T13:16:42.671Z,60.90
2018-03-15T13:19:09.895Z,61.40
2018-03-15T13:21:36.355Z,60.70
2018-03-15T13:24:02.856Z,60.70
2018-03-15T13:26:29.360Z,60.50
2018-03-15T13:28:55.823Z,60.10
2018-03-15T13:31:23.085Z,60.10
2018-03-15T13:33:49.560Z,60.10
2018-03-15T13:36:16.019Z,60.60
2018-03-15T13:38:42.475Z,60.10
2018-03-15T13:41:08.933Z,60.10
2018-03-15T13:43:35.406Z,60.20
2018-03-15T13:46:02.021Z,60.20
2018-03-15T13:48:28.511Z,60.10
2018-03-15T13:50:54.954Z,60.00
2018-03-15T13:53:21.410Z,60.00
2018-03-15T13:55:48.634Z,60.00
2018-03-15T13:58:15.090Z,59.90
2018-03-15T14:00:41.540Z,59.90
2018-03-15T14:03:07.995Z,59.90
2018-03-15T14:05:34.455Z,59.90
2018-03-15T14:08:01.688Z,59.80
2018-03-15T14:10:28.147Z,59.80
2018-03-15T14:12:54.612Z,59.80
2018-03-15T14:15:21.829Z,60.10
2018-03-15T14:17:48.276Z,59.70
2018-03-15T14:20:14.759Z,59.70
2018-03-15T14:22:41.223Z,59.70
2018-03-15T14:25:08.471Z,60.10
2018-03-15T14:27:36.483Z,60.00
2018-03-15T14:30:03.563Z,59.60
2018-03-15T14:32:30.501Z,59.30
2018-03-15T14:34:58.003Z,59.40
2018-03-15T14:37:25.747Z,59.60
2018-03-15T14:39:53.218Z,59.60
2018-03-15T14:42:20.790Z,59.60
2018-03-15T14:44:48.159Z,59.60
2018-03-15T14:47:15.203Z,59.60
2018-03-15T14:49:42.894Z,60.20
2018-03-15T14:52:10.465Z,59.50
2018-03-15T14:54:37.830Z,59.50
2018-03-15T14:57:05.215Z,59.60
2018-03-15T14:59:32.464Z,59.60
2018-03-15T15:01:59.423Z,59.60
2018-03-15T15:04:27.507Z,59.60
2018-03-15T15:06:55.695Z,59.60
2018-03-15T15:09:23.728Z,59.60
2018-03-15T15:11:50.738Z,59.60
2018-03-15T15:14:18.006Z,59.70
2018-03-15T15:16:45.482Z,59.60
2018-03-15T15:19:13.161Z,59.60
2018-03-15T15:21:40.575Z,59.70
2018-03-15T15:24:07.804Z,59.70
2018-03-15T15:26:35.270Z,59.70
2018-03-15T15:29:02.623Z,59.70
2018-03-15T15:31:30.184Z,59.70
2018-03-15T15:33:57.571Z,59.70
2018-03-15T15:36:25.102Z,59.80
2018-03-15T15:38:52.699Z,59.80
2018-03-15T15:41:20.368Z,59.70
2018-03-15T15:43:46.995Z,59.70
2018-03-15T15:46:13.479Z,59.70
2018-03-15T15:48:39.989Z,59.70
2018-03-15T15:51:08.092Z,59.90
2018-03-15T15:53:35.301Z,59.80
2018-03-15T15:56:02.651Z,60.50
2018-03-15T15:58:29.097Z,59.80
2018-03-15T16:00:55.587Z,60.00
2018-03-15T16:03:22.048Z,60.80
2018-03-15T16:05:49.275Z,60.40
2018-03-15T16:08:15.734Z,60.40
2018-03-15T16:10:42.177Z,60.70
2018-03-15T16:13:08.733Z,60.40
2018-03-15T16:15:35.205Z,60.20
2018-03-15T16:18:02.597Z,60.20
2018-03-15T16:20:29.056Z,60.20
2018-03-15T16:22:55.581Z,60.30
2018-03-15T16:25:22.794Z,60.40
2018-03-15T16:27:49.291Z,60.40
2018-03-15T16:30:16.514Z,60.40
2018-03-15T16:32:43.012Z,60.40
2018-03-15T16:35:09.475Z,60.30
2018-03-15T16:37:35.959Z,60.70
2018-03-15T16:40:02.419Z,60.30
2018-03-15T16:42:28.917Z,60.20
2018-03-15T16:44:55.551Z,60.40
2018-03-15T16:47:22.138Z,60.30
2018-03-15T16:49:48.693Z,60.10
2018-03-15T16:52:15.150Z,60.30
2018-03-15T16:54:41.737Z,60.00
2018-03-15T16:57:08.328Z,60.50
2018-03-15T16:59:34.802Z,60.00
2018-03-15T17:02:01.337Z,60.00
2018-03-15T17:04:27.793Z,60.20
2018-03-15T17:06:54.251Z,60.30
2018-03-15T17:09:21.538Z,60.40
2018-03-15T17:11:48.006Z,60.40
2018-03-15T17:14:14.448Z,60.40
2018-03-15T17:16:40.906Z,60.40
2018-03-15T17:19:07.409Z,60.40
2018-03-15T17:21:34.635Z,60.40
2018-03-15T17:24:01.188Z,60.40
2018-03-15T17:26:27.781Z,60.50
2018-03-15T17:28:54.278Z,60.50
2018-03-15T17:31:20.731Z,60.50
2018-03-15T17:33:48.127Z,60.60
2018-03-15T17:36:15.606Z,60.60
2018-03-15T17:38:42.938Z,60.70
2018-03-15T17:41:09.737Z,60.60
2018-03-15T17:43:36.281Z,60.60
2018-03-15T17:46:03.749Z,60.70
2018-03-15T17:48:30.225Z,60.70
2018-03-15T17:50:56.952Z,60.70
2018-03-15T17:53:23.873Z,60.90
2018-03-15T17:55:51.170Z,60.80
2018-03-15T17:58:17.718Z,61.00
2018-03-15T18:00:44.987Z,60.80
2018-03-15T18:03:12.662Z,60.90
2018-03-15T18:05:39.903Z,60.90
2018-03-15T18:08:07.301Z,60.90
2018-03-15T18:10:34.662Z,60.90
2018-03-15T18:13:02.816Z,61.70
2018-03-15T18:15:30.319Z,60.90
2018-03-15T18:17:57.799Z,60.90
2018-03-15T18:20:25.363Z,61.00
2018-03-15T18:22:52.690Z,61.00
2018-03-15T18:25:20.014Z,61.10
2018-03-15T18:27:47.830Z,61.00
2018-03-15T18:30:15.237Z,61.00
2018-03-15T18:32:43.529Z,61.10
2018-03-15T18:35:10.283Z,61.00
2018-03-15T18:37:38.326Z,61.10
2018-03-15T18:40:05.466Z,61.10
2018-03-15T18:42:32.901Z,61.10
2018-03-15T18:45:00.366Z,61.20
2018-03-15T18:47:28.917Z,61.30
2018-03-15T18:49:56.383Z,61.20
2018-03-15T18:52:24.804Z,61.20
2018-03-15T18:54:52.295Z,61.20
2018-03-15T18:57:19.651Z,61.20
2018-03-15T18:59:47.133Z,61.20
2018-03-15T19:02:15.067Z,61.30
2018-03-15T19:04:42.585Z,61.30
2018-03-15T19:07:10.966Z,61.50
2018-03-15T19:09:38.229Z,61.40
2018-03-15T19:12:05.818Z,61.40
2018-03-15T19:14:34.107Z,61.60
2018-03-15T19:17:01.768Z,61.60
2018-03-15T19:19:29.352Z,61.50
2018-03-15T19:21:57.739Z,61.70
2018-03-15T19:24:25.930Z,61.70
2018-03-15T19:26:54.811Z,61.70
2018-03-15T19:29:22.106Z,61.70
2018-03-15T19:31:49.534Z,61.60
2018-03-15T19:34:16.835Z,61.60
2018-03-15T19:36:44.200Z,61.70
2018-03-15T19:39:12.483Z,61.80
2018-03-15T19:41:40.569Z,61.80
2018-03-15T19:44:08.870Z,61.70
2018-03-15T19:46:36.235Z,61.80
2018-03-15T19:49:04.319Z,61.90
2018-03-15T19:51:31.786Z,61.80
2018-03-15T19:53:59.464Z,61.80
2018-03-15T19:56:26.917Z,61.80
2018-03-15T19:58:54.420Z,61.80
2018-03-15T20:01:22.077Z,61.90
2018-03-15T20:03:49.649Z,61.90
2018-03-15T20:06:17.837Z,62.00
2018-03-15T20:08:45.407Z,62.00
2018-03-15T20:11:13.463Z,62.00
2018-03-15T20:13:41.064Z,61.90
2018-03-15T20:16:08.456Z,62.00
2018-03-15T20:18:36.097Z,62.00
2018-03-15T20:21:03.450Z,62.20
2018-03-15T20:23:30.919Z,62.00
2018-03-15T20:25:58.413Z,62.00
2018-03-15T20:28:25.884Z,61.90
2018-03-15T20:30:53.462Z,62.00
2018-03-15T20:33:21.738Z,62.70
2018-03-15T20:35:49.114Z,62.10
2018-03-15T20:38:16.481Z,62.10
2018-03-15T20:40:43.951Z,62.10
2018-03-15T20:43:12.138Z,62.10
2018-03-15T20:45:39.570Z,62.10
2018-03-15T20:48:06.960Z,62.10
2018-03-15T20:50:34.218Z,62.20
2018-03-15T20:53:01.776Z,62.10
2018-03-15T20:55:29.159Z,62.20
2018-03-15T20:57:56.522Z,62.20
2018-03-15T21:00:23.913Z,62.20
2018-03-15T21:02:52.102Z,62.30
2018-03-15T21:05:19.930Z,62.20
2018-03-15T21:07:47.140Z,62.20
2018-03-15T21:10:14.714Z,62.30
2018-03-15T21:12:42.169Z,62.20
2018-03-15T21:15:10.329Z,62.30
2018-03-15T21:17:37.638Z,62.30
2018-03-15T21:20:05.503Z,62.30
2018-03-15T21:22:32.681Z,62.30
2018-03-15T21:24:59.676Z,62.30
2018-03-15T21:27:26.951Z,62.30
2018-03-15T21:29:54.165Z,62.30
2018-03-15T21:32:21.497Z,62.30
2018-03-15T21:34:48.747Z,62.30
2018-03-15T21:37:15.407Z,63.00
2018-03-15T21:39:42.203Z,62.30
2018-03-15T21:42:08.946Z,62.30
2018-03-15T21:44:35.711Z,62.30
2018-03-15T21:47:02.463Z,62.30
2018-03-15T21:49:29.194Z,62.30
2018-03-15T21:51:55.875Z,62.30
2018-03-15T21:54:22.602Z,62.30
2018-03-15T21:56:49.345Z,62.30
2018-03-15T21:59:16.837Z,62.40
2018-03-15T22:01:43.593Z,62.30
2018-03-15T22:04:10.348Z,62.40
2018-03-15T22:06:37.097Z,62.40
2018-03-15T22:09:04.158Z,62.30
2018-03-15T22:11:31.526Z,62.40
2018-03-15T22:13:58.484Z,62.40
2018-03-15T22:16:25.852Z,62.40
2018-03-15T22:18:53.207Z,62.40
2018-03-15T22:21:20.587Z,62.40
2018-03-15T22:23:48.060Z,63.20
2018-03-15T22:26:15.518Z,62.40
2018-03-15T22:28:42.999Z,62.40
2018-03-15T22:31:10.260Z,62.30
2018-03-15T22:33:37.679Z,62.40
2018-03-15T22:36:04.791Z,62.40
2018-03-15T22:38:32.288Z,62.40
2018-03-15T22:40:59.835Z,61.60
2018-03-15T22:43:27.511Z,62.40
2018-03-15T22:45:55.697Z,62.30
2018-03-15T22:48:23.268Z,62.20
2018-03-15T22:50:51.434Z,62.10
2018-03-15T22:53:20.555Z,62.10
2018-03-15T22:55:48.651Z,62.20
2018-03-15T22:58:16.328Z,62.10
2018-03-15T23:00:43.756Z,62.10
2018-03-15T23:03:11.239Z,62.20
2018-03-15T23:05:39.544Z,62.10
2018-03-15T23:08:06.863Z,62.20
2018-03-15T23:10:34.319Z,62.20
2018-03-15T23:13:01.750Z,62.10
2018-03-15T23:15:30.141Z,62.20
2018-03-15T23:17:58.227Z,62.20
2018-03-15T23:20:25.809Z,62.20
2018-03-15T23:22:53.380Z,62.20
2018-03-15T23:25:21.062Z,62.20
2018-03-15T23:27:48.524Z,62.20
2018-03-15T23:30:16.309Z,62.20
2018-03-15T23:32:44.483Z,62.30
2018-03-15T23:35:12.168Z,62.30
2018-03-15T23:37:39.529Z,62.20
2018-03-15T23:40:07.929Z,62.30
2018-03-15T23:42:35.091Z,62.30
2018-03-15T23:45:02.658Z,62.30
2018-03-15T23:47:30.770Z,62.20
2018-03-15T23:49:58.211Z,62.20
2018-03-15T23:52:25.686Z,62.30
2018-03-15T23:54:53.151Z,62.30
2018-03-15T23:57:21.956Z,62.30
2018-03-15T23:59:50.776Z,63.00
